createdAt,value
2023-03-26T00:00:27.112Z,7.20
2023-03-26T00:03:20.646Z,7.20
2023-03-26T00:06:03.466Z,7.20
2023-03-26T00:08:34.788Z,7.00
2023-03-26T00:11:06.481Z,6.80
2023-03-26T00:13:38.969Z,6.70
2023-03-26T00:16:10.967Z,6.70
2023-03-26T00:18:42.729Z,6.60
2023-03-26T00:21:17.223Z,6.50
2023-03-26T00:23:49.237Z,6.70
2023-03-26T00:26:19.799Z,6.50
2023-03-26T00:28:52.155Z,6.30
2023-03-26T00:31:22.906Z,6.50
2023-03-26T00:33:55.849Z,6.60
2023-03-26T00:36:28.398Z,6.70
2023-03-26T00:38:59.200Z,6.80
2023-03-26T00:41:31.177Z,6.90
2023-03-26T00:44:03.474Z,7.00
2023-03-26T00:46:34.119Z,7.00
2023-03-26T00:49:06.073Z,7.00
2023-03-26T00:51:37.457Z,7.00
2023-03-26T00:54:09.007Z,7.00
2023-03-26T00:56:40.160Z,7.00
2023-03-26T00:59:12.473Z,7.00
2023-03-26T01:01:44.859Z,7.10
2023-03-26T01:04:31.214Z,7.10
2023-03-26T01:07:11.075Z,7.10
2023-03-26T01:09:50.506Z,7.10
2023-03-26T01:12:25.348Z,7.10
2023-03-26T01:15:04.097Z,7.10
2023-03-26T01:17:35.221Z,7.10
2023-03-26T01:20:17.246Z,7.10
2023-03-26T01:22:54.484Z,7.10
2023-03-26T01:25:33.841Z,7.20
2023-03-26T01:28:08.892Z,7.20
2023-03-26T01:30:49.699Z,7.10
2023-03-26T01:33:30.354Z,6.90
2023-03-26T01:36:07.492Z,6.90
2023-03-26T01:38:46.946Z,6.70
2023-03-26T01:41:24.330Z,6.60
2023-03-26T01:44:01.938Z,6.80
2023-03-26T01:46:36.440Z,6.70
2023-03-26T01:49:13.297Z,6.60
2023-03-26T01:51:45.116Z,6.70
2023-03-26T01:54:21.292Z,6.70
2023-03-26T01:57:11.427Z,6.70
2023-03-26T01:59:59.713Z,6.70
2023-03-26T02:02:39.975Z,7.00
2023-03-26T02:05:18.149Z,7.00
2023-03-26T02:07:54.229Z,7.00
2023-03-26T02:10:28.850Z,7.10
2023-03-26T02:13:02.106Z,7.10
2023-03-26T02:15:32.676Z,7.00
2023-03-26T02:18:04.148Z,7.00
2023-03-26T02:20:34.748Z,6.90
2023-03-26T02:23:06.845Z,6.70
2023-03-26T02:25:40.001Z,6.60
2023-03-26T02:28:12.367Z,6.60
2023-03-26T02:30:43.465Z,6.50
2023-03-26T02:33:15.501Z,6.30
2023-03-26T02:35:46.149Z,6.20
2023-03-26T02:38:17.006Z,6.20
2023-03-26T02:40:47.630Z,6.40
2023-03-26T02:43:20.512Z,6.60
2023-03-26T02:45:51.204Z,6.70
2023-03-26T02:48:45.279Z,6.80
2023-03-26T02:51:21.708Z,6.80
2023-03-26T02:54:12.709Z,6.80
2023-03-26T02:57:21.949Z,6.90
2023-03-26T03:00:16.923Z,7.20
2023-03-26T03:03:07.600Z,7.30
2023-03-26T03:05:59.234Z,7.30
2023-03-26T03:08:37.190Z,7.40
2023-03-26T03:11:14.818Z,7.50
2023-03-26T03:13:53.513Z,7.30
2023-03-26T03:16:28.904Z,7.30
2023-03-26T03:19:01.987Z,7.20
2023-03-26T03:21:43.921Z,7.30
2023-03-26T03:24:18.408Z,7.10
2023-03-26T03:26:55.152Z,7.10
2023-03-26T03:29:48.989Z,7.10
2023-03-26T03:32:40.214Z,7.10
2023-03-26T03:35:11.210Z,7.10
2023-03-26T03:37:43.554Z,7.00
2023-03-26T03:40:15.114Z,7.00
2023-03-26T03:42:47.540Z,6.90
2023-03-26T03:45:25.555Z,6.90
2023-03-26T03:48:13.654Z,6.90
2023-03-26T03:50:47.672Z,7.00
2023-03-26T03:53:30.551Z,7.10
2023-03-26T03:56:04.885Z,7.00
2023-03-26T03:59:09.030Z,6.90
2023-03-26T04:01:43.558Z,6.90
2023-03-26T04:04:25.855Z,6.90
2023-03-26T04:07:17.238Z,6.90
2023-03-26T04:10:18.581Z,6.80
2023-03-26T04:13:12.338Z,6.80
2023-03-26T04:15:58.875Z,6.90
2023-03-26T04:18:30.448Z,7.00
2023-03-26T04:21:08.674Z,7.00
2023-03-26T04:23:40.079Z,7.10
2023-03-26T04:26:22.983Z,7.30
2023-03-26T04:29:18.356Z,7.30
2023-03-26T04:32:06.596Z,7.30
2023-03-26T04:34:37.260Z,7.50
2023-03-26T04:37:26.725Z,7.50
2023-03-26T04:40:13.936Z,7.50
2023-03-26T04:43:04.400Z,7.60
2023-03-26T04:45:54.442Z,7.60
2023-03-26T04:48:28.701Z,7.60
2023-03-26T04:50:59.715Z,7.60
2023-03-26T04:53:32.290Z,7.60
2023-03-26T04:56:15.559Z,7.60
2023-03-26T04:59:47.365Z,7.50
2023-03-26T05:02:19.044Z,7.50
2023-03-26T05:04:54.356Z,7.50
2023-03-26T05:07:26.532Z,7.50
2023-03-26T05:10:03.587Z,7.50
2023-03-26T05:12:56.566Z,7.50
2023-03-26T05:15:31.268Z,7.40
2023-03-26T05:18:20.174Z,7.30
2023-03-26T05:20:54.798Z,7.20
2023-03-26T05:23:25.840Z,7.20
2023-03-26T05:26:15.799Z,7.20
2023-03-26T05:28:46.318Z,7.00
2023-03-26T05:31:40.117Z,6.90
2023-03-26T05:34:10.627Z,7.00
2023-03-26T05:36:42.646Z,6.90
2023-03-26T05:39:41.392Z,6.90
2023-03-26T05:42:40.639Z,7.00
2023-03-26T05:45:29.732Z,7.20
2023-03-26T05:48:02.956Z,7.30
2023-03-26T05:50:33.515Z,7.20
2023-03-26T05:53:04.807Z,7.30
2023-03-26T05:55:59.235Z,7.40
2023-03-26T05:58:51.928Z,7.50
2023-03-26T06:01:45.510Z,7.50
2023-03-26T06:04:17.374Z,7.60
2023-03-26T06:06:58.741Z,7.60
2023-03-26T06:09:30.369Z,7.60
2023-03-26T06:12:00.942Z,7.60
2023-03-26T06:14:37.594Z,7.60
2023-03-26T06:17:22.678Z,7.60
2023-03-26T06:20:18.142Z,7.70
2023-03-26T06:22:51.079Z,7.70
2023-03-26T06:25:31.991Z,7.70
2023-03-26T06:28:31.921Z,7.70
2023-03-26T06:31:12.481Z,7.70
2023-03-26T06:33:48.881Z,7.70
2023-03-26T06:36:20.045Z,7.80
2023-03-26T06:38:53.131Z,7.90
2023-03-26T06:41:24.634Z,7.90
2023-03-26T06:44:18.754Z,8.00
2023-03-26T06:47:14.202Z,8.00
2023-03-26T06:49:53.797Z,8.00
2023-03-26T06:52:42.023Z,8.10
2023-03-26T06:55:28.810Z,8.20
2023-03-26T06:58:19.283Z,8.20
2023-03-26T07:01:08.850Z,8.20
2023-03-26T07:04:00.296Z,8.30
2023-03-26T07:06:49.491Z,8.30
2023-03-26T07:09:59.278Z,8.30
2023-03-26T07:12:58.106Z,8.40
2023-03-26T07:15:49.509Z,8.50
2023-03-26T07:18:33.608Z,8.70
2023-03-26T07:21:10.526Z,8.80
2023-03-26T07:23:42.022Z,8.80
2023-03-26T07:26:44.353Z,8.80
2023-03-26T07:29:35.315Z,8.80
2023-03-26T07:32:22.793Z,8.90
2023-03-26T07:35:31.812Z,8.90
2023-03-26T07:38:50.366Z,8.90
2023-03-26T07:41:41.439Z,8.80
2023-03-26T07:44:52.723Z,8.80
2023-03-26T07:47:45.387Z,8.80
2023-03-26T07:50:48.307Z,8.70
2023-03-26T07:53:53.742Z,8.90
2023-03-26T07:56:50.605Z,9.20
2023-03-26T07:59:58.986Z,9.20
2023-03-26T08:03:29.149Z,9.10
2023-03-26T08:06:37.436Z,9.20
2023-03-26T08:09:30.073Z,9.10
2023-03-26T08:12:48.590Z,9.10
2023-03-26T08:15:29.451Z,8.80
2023-03-26T08:18:08.226Z,8.70
2023-03-26T08:20:47.979Z,8.60
2023-03-26T08:23:29.245Z,8.60
2023-03-26T08:26:10.676Z,8.60
2023-03-26T08:28:59.496Z,8.70
2023-03-26T08:31:36.970Z,8.80
2023-03-26T08:34:10.744Z,8.80
2023-03-26T08:36:41.820Z,8.90
2023-03-26T08:39:12.190Z,9.00
2023-03-26T08:42:34.810Z,8.80
2023-03-26T08:45:47.484Z,8.50
2023-03-26T08:49:29.187Z,8.20
2023-03-26T08:52:43.985Z,8.10
2023-03-26T08:55:45.030Z,8.00
2023-03-26T08:59:29.438Z,7.60
2023-03-26T09:02:48.532Z,7.70
2023-03-26T09:06:12.816Z,7.90
2023-03-26T09:09:35.502Z,8.00
2023-03-26T09:12:52.647Z,7.90
2023-03-26T09:16:25.944Z,7.80
2023-03-26T09:19:38.596Z,7.70
2023-03-26T09:23:05.777Z,7.60
2023-03-26T09:26:17.873Z,7.70
2023-03-26T09:29:24.386Z,7.60
2023-03-26T09:33:06.696Z,7.40
2023-03-26T09:36:02.787Z,7.40
2023-03-26T09:38:46.287Z,7.50
2023-03-26T09:41:32.538Z,7.80
2023-03-26T09:44:46.738Z,8.00
2023-03-26T09:47:57.230Z,8.20
2023-03-26T09:50:52.791Z,8.80
2023-03-26T09:54:02.561Z,8.90
2023-03-26T09:56:47.467Z,9.10
2023-03-26T09:59:55.541Z,9.10
2023-03-26T10:02:47.805Z,9.40
2023-03-26T10:06:04.079Z,9.80
2023-03-26T10:09:03.171Z,9.90
2023-03-26T10:11:57.659Z,10.20
2023-03-26T10:14:38.450Z,10.00
2023-03-26T10:17:32.054Z,10.10
2023-03-26T10:20:25.466Z,10.00
2023-03-26T10:23:24.208Z,10.00
2023-03-26T10:26:18.766Z,9.90
2023-03-26T10:29:21.877Z,9.90
2023-03-26T10:31:57.791Z,10.20
2023-03-26T10:34:56.202Z,9.70
2023-03-26T10:37:45.906Z,9.40
2023-03-26T10:40:28.706Z,9.10
2023-03-26T10:43:49.715Z,9.00
2023-03-26T10:47:21.467Z,8.70
2023-03-26T10:50:23.307Z,8.30
2023-03-26T10:53:02.018Z,8.30
2023-03-26T10:55:39.200Z,8.50
2023-03-26T10:58:19.760Z,8.60
2023-03-26T11:00:59.045Z,8.70
2023-03-26T11:03:52.167Z,8.70
2023-03-26T11:06:43.479Z,8.80
2023-03-26T11:09:32.634Z,8.80
2023-03-26T11:12:26.647Z,8.60
2023-03-26T11:15:19.205Z,8.50
2023-03-26T11:18:04.988Z,9.30
2023-03-26T11:20:41.552Z,9.50
2023-03-26T11:23:34.278Z,9.40
2023-03-26T11:26:16.986Z,9.30
2023-03-26T11:29:33.628Z,9.80
2023-03-26T11:32:11.869Z,10.40
2023-03-26T11:34:47.413Z,10.10
2023-03-26T11:37:27.571Z,10.40
2023-03-26T11:40:00.841Z,10.40
2023-03-26T11:42:31.782Z,10.30
2023-03-26T11:45:08.149Z,10.30
2023-03-26T11:47:47.900Z,10.10
2023-03-26T11:50:23.867Z,9.90
2023-03-26T11:53:01.407Z,10.00
2023-03-26T11:55:33.040Z,9.60
2023-03-26T11:58:06.190Z,9.60
2023-03-26T12:00:40.352Z,9.60
2023-03-26T12:03:17.603Z,9.80
2023-03-26T12:05:53.712Z,9.90
2023-03-26T12:08:33.836Z,10.10
2023-03-26T12:11:12.379Z,10.20
2023-03-26T12:13:51.995Z,10.30
2023-03-26T12:16:25.029Z,10.30
2023-03-26T12:19:04.235Z,10.10
2023-03-26T12:21:47.778Z,10.20
2023-03-26T12:24:30.648Z,10.10
2023-03-26T12:27:03.530Z,10.30
2023-03-26T12:29:34.715Z,10.50
2023-03-26T12:32:14.587Z,10.50
2023-03-26T12:34:45.994Z,10.80
2023-03-26T12:37:38.742Z,10.80
2023-03-26T12:40:30.179Z,11.00
2023-03-26T12:44:46.780Z,10.60
2023-03-26T12:47:54.138Z,10.60
2023-03-26T12:48:51.904Z,10.70
2023-03-26T12:51:42.029Z,11.10
2023-03-26T12:54:37.073Z,11.50
2023-03-26T12:57:24.379Z,11.60
2023-03-26T13:00:13.976Z,11.30
2023-03-26T13:03:19.585Z,11.40
2023-03-26T13:06:13.976Z,11.70
2023-03-26T13:09:08.816Z,11.90
2023-03-26T13:11:53.519Z,12.40
2023-03-26T13:14:51.577Z,12.30
2023-03-26T13:17:33.250Z,12.40
2023-03-26T13:20:12.848Z,12.60
2023-03-26T13:22:57.077Z,12.60
2023-03-26T13:25:40.226Z,12.80
2023-03-26T13:28:27.539Z,12.80
2023-03-26T13:31:11.549Z,12.10
2023-03-26T13:33:51.643Z,12.30
2023-03-26T13:36:32.914Z,12.30
2023-03-26T13:39:27.621Z,12.40
2023-03-26T13:42:20.303Z,12.10
2023-03-26T13:45:05.261Z,12.10
2023-03-26T13:47:42.846Z,11.90
2023-03-26T13:50:25.237Z,11.90
2023-03-26T13:53:01.774Z,12.20
2023-03-26T13:55:37.619Z,12.20
2023-03-26T13:58:18.401Z,12.00
2023-03-26T14:00:59.554Z,11.90
2023-03-26T14:03:45.591Z,12.30
2023-03-26T14:06:34.132Z,12.20
2023-03-26T14:09:13.889Z,12.20
2023-03-26T14:12:02.678Z,12.50
2023-03-26T14:14:46.854Z,12.10
2023-03-26T14:17:26.770Z,11.90
2023-03-26T14:20:57.596Z,11.90
2023-03-26T14:23:51.163Z,12.10
2023-03-26T14:26:48.302Z,11.90
2023-03-26T14:29:56.529Z,11.80
2023-03-26T14:32:42.044Z,11.80
2023-03-26T14:35:35.842Z,11.80
2023-03-26T14:38:47.820Z,11.70
2023-03-26T14:41:26.100Z,11.70
2023-03-26T14:44:57.721Z,11.70
2023-03-26T14:47:31.950Z,11.60
2023-03-26T14:50:42.846Z,11.70
2023-03-26T14:53:25.759Z,11.70
2023-03-26T14:56:34.125Z,11.60
2023-03-26T15:00:16.034Z,11.80
2023-03-26T15:04:01.739Z,11.70
2023-03-26T15:07:22.613Z,11.80
2023-03-26T15:10:56.609Z,11.90
2023-03-26T15:14:02.273Z,12.70
2023-03-26T15:17:36.907Z,12.40
2023-03-26T15:21:06.962Z,11.70
2023-03-26T15:24:27.791Z,11.40
2023-03-26T15:27:34.916Z,11.30
2023-03-26T15:34:45.519Z,11.30
2023-03-26T15:38:09.468Z,11.20
2023-03-26T15:41:16.954Z,11.30
2023-03-26T15:44:29.186Z,11.20
2023-03-26T15:47:27.400Z,11.20
2023-03-26T15:50:17.380Z,11.20
2023-03-26T15:52:56.167Z,11.10
2023-03-26T15:55:36.316Z,11.20
2023-03-26T15:58:17.119Z,11.10
2023-03-26T16:01:02.892Z,11.10
2023-03-26T16:03:43.268Z,11.10
2023-03-26T16:06:36.873Z,11.10
2023-03-26T16:09:35.440Z,11.00
2023-03-26T16:12:30.526Z,10.70
2023-03-26T16:15:29.689Z,10.40
2023-03-26T16:18:33.585Z,10.20
2023-03-26T16:21:42.416Z,10.00
2023-03-26T16:24:29.175Z,9.90
2023-03-26T16:27:32.176Z,9.80
2023-03-26T16:30:31.817Z,9.60
2023-03-26T16:33:15.757Z,9.60
2023-03-26T16:36:26.076Z,9.50
2023-03-26T16:39:17.325Z,9.40
2023-03-26T16:42:12.428Z,9.20
2023-03-26T16:44:50.202Z,8.90
2023-03-26T16:47:32.248Z,8.90
2023-03-26T16:50:15.523Z,9.00
2023-03-26T16:52:52.127Z,8.90
2023-03-26T16:55:34.652Z,8.70
2023-03-26T16:58:24.269Z,8.70
2023-03-26T17:01:09.091Z,8.70
2023-03-26T17:03:53.350Z,8.60
2023-03-26T17:06:45.880Z,8.50
2023-03-26T17:09:30.359Z,8.40
2023-03-26T17:12:10.636Z,8.30
2023-03-26T17:14:56.849Z,8.20
2023-03-26T17:17:58.910Z,8.10
2023-03-26T17:20:38.966Z,8.00
2023-03-26T17:23:29.822Z,7.90
2023-03-26T17:26:18.040Z,7.90
2023-03-26T17:29:17.875Z,7.80
2023-03-26T17:31:59.569Z,7.70
2023-03-26T17:34:53.870Z,7.60
2023-03-26T17:37:45.926Z,7.60
2023-03-26T17:40:56.237Z,7.50
2023-03-26T17:43:46.286Z,7.50
2023-03-26T17:46:37.638Z,7.40
2023-03-26T17:49:20.203Z,7.40
2023-03-26T17:51:54.787Z,7.30
2023-03-26T17:54:32.885Z,7.10
2023-03-26T17:57:08.570Z,7.20
2023-03-26T17:59:41.837Z,7.20
2023-03-26T18:02:17.790Z,7.20
2023-03-26T18:04:54.969Z,7.20
2023-03-26T18:08:19.179Z,7.10
2023-03-26T18:11:52.907Z,7.10
2023-03-26T18:15:29.954Z,7.10
2023-03-26T18:18:11.392Z,7.10
2023-03-26T18:20:47.149Z,7.10
2023-03-26T18:23:27.805Z,7.00
2023-03-26T18:26:11.147Z,7.10
2023-03-26T18:28:44.120Z,7.10
2023-03-26T18:31:20.574Z,7.20
2023-03-26T18:33:59.398Z,7.40
2023-03-26T18:36:33.236Z,7.50
2023-03-26T18:39:06.513Z,7.70
2023-03-26T18:41:41.718Z,7.70
2023-03-26T18:44:19.050Z,7.70
2023-03-26T18:46:49.694Z,7.60
2023-03-26T18:49:21.795Z,7.50
2023-03-26T18:51:57.447Z,7.50
2023-03-26T18:54:35.232Z,7.50
2023-03-26T18:57:15.862Z,7.40
2023-03-26T18:59:50.730Z,7.40
2023-03-26T19:02:23.200Z,7.50
2023-03-26T19:04:54.788Z,7.50
2023-03-26T19:07:28.255Z,7.40
2023-03-26T19:10:03.056Z,7.40
2023-03-26T19:12:35.945Z,7.40
2023-03-26T19:15:12.707Z,7.30
2023-03-26T19:17:47.414Z,7.20
2023-03-26T19:20:24.084Z,7.10
2023-03-26T19:22:58.219Z,7.00
2023-03-26T19:25:34.609Z,7.00
2023-03-26T19:28:06.766Z,6.90
2023-03-26T19:30:43.308Z,6.90
2023-03-26T19:33:18.536Z,6.90
2023-03-26T19:36:01.407Z,7.00
2023-03-26T19:38:44.318Z,7.20
2023-03-26T19:41:23.374Z,7.20
2023-03-26T19:43:58.163Z,7.20
2023-03-26T19:46:34.065Z,7.20
2023-03-26T19:49:31.780Z,7.30
2023-03-26T19:52:15.034Z,7.30
2023-03-26T19:55:05.087Z,7.40
2023-03-26T19:57:38.070Z,7.30
2023-03-26T20:00:14.644Z,7.30
2023-03-26T20:02:47.388Z,7.10
2023-03-26T20:05:25.469Z,7.10
2023-03-26T20:07:59.823Z,7.10
2023-03-26T20:10:31.964Z,7.00
2023-03-26T20:13:02.739Z,6.90
2023-03-26T20:15:35.957Z,6.80
2023-03-26T20:18:06.733Z,6.70
2023-03-26T20:20:37.171Z,6.70
2023-03-26T20:23:17.805Z,6.80
2023-03-26T20:25:53.940Z,6.90
2023-03-26T20:28:24.935Z,6.80
2023-03-26T20:30:55.642Z,6.80
2023-03-26T20:33:28.238Z,6.80
2023-03-26T20:36:00.528Z,6.70
2023-03-26T20:38:38.948Z,6.80
2023-03-26T20:41:17.678Z,6.70
2023-03-26T20:43:48.689Z,6.80
2023-03-26T20:46:22.559Z,6.70
2023-03-26T20:48:56.500Z,6.70
2023-03-26T20:51:28.815Z,6.70
2023-03-26T20:54:00.761Z,6.60
2023-03-26T20:56:35.332Z,6.80
2023-03-26T20:59:10.922Z,6.90
2023-03-26T21:01:42.468Z,6.80
2023-03-26T21:04:13.357Z,6.70
2023-03-26T21:06:45.562Z,6.80
2023-03-26T21:09:23.828Z,6.80
2023-03-26T21:12:03.135Z,6.70
2023-03-26T21:14:39.394Z,6.80
2023-03-26T21:17:17.115Z,7.00
2023-03-26T21:19:49.600Z,7.00
2023-03-26T21:22:32.000Z,7.00
2023-03-26T21:25:18.562Z,7.00
2023-03-26T21:28:07.200Z,7.00
2023-03-26T21:30:38.838Z,6.90
2023-03-26T21:33:09.486Z,6.90
2023-03-26T21:35:42.310Z,6.90
2023-03-26T21:38:14.266Z,6.90
2023-03-26T21:40:52.975Z,6.90
2023-03-26T21:43:30.646Z,6.90
2023-03-26T21:46:02.328Z,7.00
2023-03-26T21:48:33.510Z,7.00
2023-03-26T21:51:06.764Z,7.10
2023-03-26T21:53:38.149Z,7.10
2023-03-26T21:56:28.532Z,7.10
2023-03-26T21:59:09.009Z,7.10
2023-03-26T22:01:54.027Z,7.00
2023-03-26T22:04:37.177Z,7.00
2023-03-26T22:07:15.011Z,7.00
2023-03-26T22:09:46.515Z,7.00
2023-03-26T22:12:17.840Z,7.10
2023-03-26T22:14:49.599Z,7.10
2023-03-26T22:17:21.985Z,7.00
2023-03-26T22:19:52.452Z,7.10
2023-03-26T22:22:26.233Z,7.10
2023-03-26T22:24:56.928Z,7.00
2023-03-26T22:27:27.916Z,7.10
2023-03-26T22:30:00.583Z,7.10
2023-03-26T22:32:32.875Z,7.00
2023-03-26T22:35:04.993Z,7.00
2023-03-26T22:37:37.247Z,7.00
2023-03-26T22:40:11.979Z,7.00
2023-03-26T22:42:43.277Z,7.00
2023-03-26T22:45:15.523Z,7.00
2023-03-26T22:47:46.390Z,7.00
2023-03-26T22:50:16.971Z,7.00
2023-03-26T22:52:47.894Z,7.00
2023-03-26T22:55:28.369Z,6.90
2023-03-26T22:58:00.200Z,6.90
2023-03-26T23:00:32.517Z,6.90
2023-03-26T23:03:04.656Z,6.90
2023-03-26T23:05:35.563Z,6.90
2023-03-26T23:08:07.765Z,6.80
2023-03-26T23:10:38.724Z,6.80
2023-03-26T23:13:09.433Z,6.80
2023-03-26T23:15:41.706Z,6.80
2023-03-26T23:18:12.891Z,6.70
2023-03-26T23:20:43.396Z,6.70
2023-03-26T23:23:14.194Z,6.70
2023-03-26T23:25:46.870Z,6.60
2023-03-26T23:28:17.797Z,6.60
2023-03-26T23:30:53.602Z,6.60
2023-03-26T23:33:27.913Z,6.60
2023-03-26T23:36:00.380Z,6.60
2023-03-26T23:38:43.071Z,6.60
2023-03-26T23:41:15.935Z,6.60
2023-03-26T23:43:53.493Z,6.60
2023-03-26T23:46:30.462Z,6.60
2023-03-26T23:49:03.601Z,6.50
2023-03-26T23:51:36.151Z,6.50
2023-03-26T23:54:08.808Z,6.50
2023-03-26T23:56:39.184Z,6.60
2023-03-26T23:59:10.104Z,6.60
